Hartsfield Jackson Atlanta International Airport
KATL : rendu visible

Aérodrome :











RETROUVEZ-NOUS SUR...

 
LOGIN :

S'inscrire | Disclaimer

   EN    FR    IT 

 









Légende :    VFR   VFR Marginal   IFR   IFR Intensif   IFR Très Intensif
Visi : 
Plafond : 
>= 8 km
>= 3000ft
5 à 8 km
1000 à 3000 ft
1500m à 5 km
500 à 1000 ft
800 à 1500m
200 à 500 ft
< 800m
< 200 ft
Symboles :   Orages  Brouillard  Fortes neiges  Fortes précipitations  Vent > 20 kt







- Altitude de l'aérodrome : 1026 ft
- Code IATA : ATL


KATL - Hartsfield Jackson Atlanta International

DERNIER METAR :
  • 190152Z 09014KT 10SM CLR 23/17 A3011 RMK AO2 SLP188 T02330167

METARs EXPIRÉS :
  • 190052Z 08015KT 10SM CLR 25/18 A3009 RMK AO2 SLP179 T02500178
  • 182352Z 08014KT 10SM CLR 26/18 A3007 RMK AO2 SLP172 T02560183 10317 20256 53008
  • 182252Z 06016KT 10SM FEW035 27/19 A3005 RMK AO2 SLP167 T02720189

TAF KATL
Valide du 19 à 02h jusqu'au 20 à 06h UTC


190141Z 1902/2006 08013KT P6SM FEW250
FM190800 10010KT P6SM BKN050
FM191400 10012G20KT P6SM SCT050
FM192100 09009KT P6SM FEW250
Pas de NOTAMs connus pour ce terrain.



MET'MAP, la Météo Aéronautique d'un coup d'oeil ! - Copyright ORBIFLY Décembre 2007 - Disclaimer

ORBIFLY MET'MAP TEAM :

Programmation & Développement : Alexandra Zaïnal
Conception & Développement : Baudouin d'Aumeries
Co-Programmation & Développement : Marc-Olivier Méhu
Soutien technique & logistique : Manuel Goepfert

Contact : metmap@orbifly.com




SOURCES & CREDITS :

   NOAA       Earth
Advisory